Norwegian Crown — C6II4 — position and weather

sailwx.info

Track history (hours):
 
Tides and Currents Weather Stations Pressure Air Temp Water Temp Dewpoint Dewpoint Depression Visibility Wind Speed Wind Dir Waves Ship Positions

Norwegian Crown

Operator: Norwegian Cruise Line

Last reported at 2017-Apr-27 01:28 UTC. Time now 2017-Apr-27 01:32 UTC.
Position N 52°23' E 004°55'.

Type: Ship. MMSI: 308785000.

Date/timePositionNaut miles runAvg speedWind from/ knotsBaromVisibWave heightAir tempDewpointWater temp
2017-Apr-27 01:28N 52°23' E 004°55'0 0.0
2017-Apr-27 00:58N 52°23' E 004°55'0 0.0
2017-Apr-27 00:28N 52°23' E 004°55'0 0.0
2017-Apr-26 23:58N 52°23' E 004°55'0 0.0
2017-Apr-26 23:28N 52°23' E 004°55'0 0.0
2017-Apr-26 22:58N 52°23' E 004°55'0 0.0
2017-Apr-26 22:28N 52°23' E 004°55'0 0.0
2017-Apr-26 21:58N 52°23' E 004°55'0 0.0
2017-Apr-26 21:28N 52°23' E 004°55'0 0.0
2017-Apr-26 20:58N 52°23' E 004°55'0 0.0
2017-Apr-26 20:28N 52°23' E 004°55'0 0.0
2017-Apr-26 19:58N 52°23' E 004°55'0 0.0
2017-Apr-26 19:28N 52°23' E 004°55'0 0.0
2017-Apr-26 18:58N 52°23' E 004°55'0 0.0
2017-Apr-26 18:28N 52°23' E 004°55'0 0.0
2017-Apr-26 17:58N 52°23' E 004°55'0 0.0
2017-Apr-26 17:28N 52°23' E 004°55'0 0.0
2017-Apr-26 16:58N 52°23' E 004°55'0 0.0
2017-Apr-26 16:28N 52°23' E 004°55'0 0.0
2017-Apr-26 15:58N 52°23' E 004°55'0 0.0
2017-Apr-26 15:28N 52°23' E 004°55'0 0.0
2017-Apr-26 14:58N 52°23' E 004°55'0 0.0
2017-Apr-26 14:28N 52°23' E 004°55'0 0.0
2017-Apr-26 13:28N 52°23' E 004°55'0 0.0
2017-Apr-26 12:58N 52°23' E 004°55'0 0.0
2017-Apr-26 12:28N 52°23' E 004°55'0 0.0
2017-Apr-26 11:58N 52°23' E 004°55'0 0.0
2017-Apr-26 11:28N 52°23' E 004°55'1 1.5
2017-Apr-26 11:01N 52°23' E 004°54'3 5.8
2017-Apr-26 10:31N 52°25' E 004°51'4 8.5
2017-Apr-26 10:01N 52°26' E 004°44'4 8.5
2017-Apr-26 09:31N 52°28' E 004°38'1 1.9
2017-Apr-26 09:00N 52°28' E 004°36'3 6.1
2017-Apr-26 08:31N 52°28' E 004°31'510.2
2017-Apr-26 08:00N 52°29' E 004°23'4 7.5
2017-Apr-26 07:30N 52°30' E 004°17'713.6
2017-Apr-26 07:00N 52°32' E 004°07'816.4
2017-Apr-26 06:31N 52°40' E 004°03'916.3
2017-Apr-26 05:57N 52°49' E 003°58'715.4
2017-Apr-26 05:29N 52°56' E 003°60'714.7
2017-Apr-26 05:01N 53°01' E 004°08'914.5
2017-Apr-26 04:25N 53°07' E 004°18'6514.5
2017-Apr-25 23:56N 53°44' E 005°48'6814.8
2017-Apr-25 19:19N 54°01' E 007°40'413.7
2017-Apr-25 19:00N 54°02' E 007°48'713.6
2017-Apr-25 18:30N 54°01' E 007°59'613.0
2017-Apr-25 18:00N 54°01' E 008°10'510.3
2017-Apr-25 17:30N 53°60' E 008°19'815.5
2017-Apr-25 17:00N 53°58' E 008°31'815.8
2017-Apr-25 16:31N 53°54' E 008°42'714.5
2017-Apr-25 16:00N 53°50' E 008°53'816.7
2017-Apr-25 15:30N 53°53' E 009°07'612.3
2017-Apr-25 15:00N 53°52' E 009°17'714.9
2017-Apr-25 14:30N 53°46' E 009°24'1313.1
2017-Apr-25 13:30N 53°35' E 009°37'611.2
2017-Apr-25 13:00N 53°34' E 009°46'5 9.5
2017-Apr-25 12:30N 53°32' E 009°54'2 3.1
2017-Apr-25 12:00N 53°33' E 009°56'0 0.0
2017-Apr-25 11:28N 53°33' E 009°56'0 0.0
2017-Apr-25 10:58N 53°33' E 009°56'0 0.0
2017-Apr-25 10:28N 53°33' E 009°56'0 0.0
2017-Apr-25 10:01N 53°33' E 009°56'0 0.0
2017-Apr-25 09:28N 53°33' E 009°56'0 0.0
2017-Apr-25 09:01N 53°33' E 009°56'0 0.0
2017-Apr-25 08:31N 53°33' E 009°56'0 0.0
2017-Apr-25 07:58N 53°33' E 009°56'0 0.0
2017-Apr-25 07:28N 53°33' E 009°56'0 0.0
2017-Apr-25 06:58N 53°33' E 009°56'0 0.0
2017-Apr-25 06:28N 53°33' E 009°56'0 0.0
2017-Apr-25 06:01N 53°33' E 009°56'0 0.0
2017-Apr-25 05:28N 53°33' E 009°56'0 0.0
2017-Apr-25 05:01N 53°33' E 009°56'0 0.0
2017-Apr-25 04:31N 53°33' E 009°56'0 0.0
2017-Apr-25 04:01N 53°33' E 009°56'0 0.0
2017-Apr-25 03:28N 53°33' E 009°56'0 0.0
2017-Apr-25 02:58N 53°33' E 009°56'0 0.0
2017-Apr-25 02:31N 53°33' E 009°56'0 0.0
2017-Apr-25 02:01N 53°33' E 009°56'0 0.0
2017-Apr-25 01:31N 53°33' E 009°56'0 0.0
2017-Apr-25 00:58N 53°33' E 009°56'0 0.0
2017-Apr-25 00:28N 53°33' E 009°56'0 0.0
2017-Apr-24 23:58N 53°33' E 009°56'0 0.0
2017-Apr-24 23:28N 53°33' E 009°56'0 0.0
2017-Apr-24 22:58N 53°33' E 009°56'0 0.0
2017-Apr-24 22:28N 53°33' E 009°56'0 0.0
2017-Apr-24 21:58N 53°33' E 009°56'0 0.0
2017-Apr-24 21:31N 53°33' E 009°56'0 0.0
2017-Apr-24 20:58N 53°33' E 009°56'0 0.0
2017-Apr-24 20:28N 53°33' E 009°56'0 0.0
2017-Apr-24 19:58N 53°33' E 009°56'0 0.0
2017-Apr-24 19:31N 53°33' E 009°56'0 0.0
2017-Apr-24 18:58N 53°33' E 009°56'0 0.0
2017-Apr-24 18:25N 53°33' E 009°56'0 0.0
2017-Apr-24 17:58N 53°33' E 009°56'0 0.0
2017-Apr-24 17:28N 53°33' E 009°56'0 0.0
2017-Apr-24 17:01N 53°33' E 009°56'0 0.0
2017-Apr-24 16:28N 53°33' E 009°56'0 0.0
2017-Apr-24 15:58N 53°33' E 009°56'0 0.0
2017-Apr-24 15:31N 53°33' E 009°56'0 0.0
2017-Apr-24 14:58N 53°33' E 009°56'0 0.0
2017-Apr-24 14:31N 53°33' E 009°56'0 0.0
2017-Apr-24 13:28N 53°33' E 009°56'0 0.0
2017-Apr-24 12:58N 53°33' E 009°56'0 0.0
2017-Apr-24 12:28N 53°33' E 009°56'0 0.0
2017-Apr-24 11:58N 53°33' E 009°56'0 0.0
2017-Apr-24 11:28N 53°33' E 009°56'0 0.0
2017-Apr-24 11:01N 53°33' E 009°56'0 0.0
2017-Apr-24 10:28N 53°33' E 009°56'0 0.0
2017-Apr-24 09:58N 53°33' E 009°56'0 0.0
2017-Apr-24 09:31N 53°33' E 009°56'0 0.0
2017-Apr-24 08:58N 53°33' E 009°56'0 0.2
2017-Apr-24 08:30N 53°33' E 009°56'3 5.3
2017-Apr-24 08:00N 53°33' E 009°52'4 8.5
2017-Apr-24 07:30N 53°34' E 009°45'613.0
2017-Apr-24 07:01N 53°36' E 009°35'613.0
2017-Apr-24 06:30N 53°42' E 009°30'612.8
2017-Apr-24 06:00N 53°47' E 009°23'612.6
2017-Apr-24 05:31N 53°52' E 009°17'611.4
2017-Apr-24 05:00N 53°53' E 009°07'5 9.1
2017-Apr-24 04:30N 53°51' E 008°60'612.4
2017-Apr-24 04:00N 53°50' E 008°49'5 9.6
2017-Apr-24 03:30N 53°53' E 008°42'611.6
2017-Apr-24 03:01N 53°57' E 008°36'713.2
2017-Apr-24 02:30N 53°59' E 008°25'713.1
2017-Apr-24 01:59N 53°60' E 008°14'713.8
2017-Apr-24 01:27N 53°59' E 008°01'9816.5
2017-Apr-23 19:32N 53°33' E 005°22'116.9
2017-Apr-23 19:30N 53°33' E 005°21'1117.2
2017-Apr-23 18:51N 53°29' E 005°04'617.4
2017-Apr-23 18:30N 53°27' E 004°54'1616.2
2017-Apr-23 17:29N 53°15' E 004°35'817.1
2017-Apr-23 17:00N 53°08' E 004°28'917.4
2017-Apr-23 16:30N 53°00' E 004°21'917.5
2017-Apr-23 16:00N 52°52' E 004°14'917.4
2017-Apr-23 15:30N 52°45' E 004°06'1017.1
2017-Apr-23 14:56N 52°38' E 003°55'817.6
2017-Apr-23 14:30N 52°33' E 003°46'7518.2
2017-Apr-23 10:24N 51°38' E 002°24'718.5
2017-Apr-23 10:01N 51°32' E 002°16'918.3
2017-Apr-23 09:30N 51°25' E 002°07'918.5
2017-Apr-23 09:00N 51°18' E 001°57'918.4
2017-Apr-23 08:30N 51°12' E 001°47'918.3
2017-Apr-23 08:00N 51°05' E 001°37'918.2
2017-Apr-23 07:30N 50°58' E 001°28'917.5
2017-Apr-23 07:00N 50°50' E 001°24'2616.9
2017-Apr-23 05:27N 50°31' E 000°55'817.8
2017-Apr-23 05:00N 50°29' E 000°42'917.8
2017-Apr-23 04:29N 50°26' E 000°28'817.6
2017-Apr-23 04:00N 50°24' E 000°16'917.3
2017-Apr-23 03:30N 50°22' E 000°02'917.0
2017-Apr-23 03:00N 50°22' W 000°11'917.1
2017-Apr-23 02:30N 50°26' W 000°23'816.8
2017-Apr-23 02:00N 50°30' W 000°35'816.6
2017-Apr-23 01:30N 50°35' W 000°45'816.2
2017-Apr-23 01:01N 50°40' W 000°55'510.7
2017-Apr-23 00:31N 50°43' W 001°01'816.0
2017-Apr-23 00:00N 50°46' W 001°13'5 9.2
2017-Apr-22 23:30N 50°49' W 001°18'510.6
2017-Apr-22 23:00N 50°53' W 001°24'1 2.1
2017-Apr-22 22:28N 50°54' W 001°25'0 0.0
2017-Apr-22 21:58N 50°54' W 001°25'0 0.0
2017-Apr-22 21:28N 50°54' W 001°25'0 0.0
2017-Apr-22 20:58N 50°54' W 001°25'0 0.0
2017-Apr-22 20:28N 50°54' W 001°25'0 0.0
2017-Apr-22 19:58N 50°54' W 001°25'0 0.0
2017-Apr-22 19:28N 50°54' W 001°25'0 0.0
2017-Apr-22 18:58N 50°54' W 001°25'0 0.0
2017-Apr-22 18:28N 50°54' W 001°25'0 0.0
2017-Apr-22 17:58N 50°54' W 001°25'0 0.0
2017-Apr-22 17:28N 50°54' W 001°25'0 0.0
2017-Apr-22 16:52N 50°54' W 001°25'0 0.0
2017-Apr-22 16:28N 50°54' W 001°25'0 0.0
2017-Apr-22 15:55N 50°54' W 001°25'0 0.0
2017-Apr-22 15:04N 50°54' W 001°25'0 0.0
2017-Apr-22 14:58N 50°54' W 001°25'0 0.0
2017-Apr-22 14:28N 50°54' W 001°25'0 0.0
2017-Apr-22 13:28N 50°54' W 001°25'0 0.0
2017-Apr-22 12:52N 50°54' W 001°25'0 0.0
2017-Apr-22 12:28N 50°54' W 001°25'0 0.0
2017-Apr-22 11:58N 50°54' W 001°25'0 0.0
2017-Apr-22 11:22N 50°54' W 001°25'0 0.0
2017-Apr-22 10:58N 50°54' W 001°25'0 0.0
2017-Apr-22 10:28N 50°54' W 001°25'0 0.0
2017-Apr-22 09:55N 50°54' W 001°25'0 0.0
2017-Apr-22 09:22N 50°54' W 001°25'0 0.0
2017-Apr-22 08:58N 50°54' W 001°25'0 0.0
2017-Apr-22 08:28N 50°54' W 001°25'0 0.3
2017-Apr-22 08:00N 50°54' W 001°25'4 8.2
2017-Apr-22 07:31N 50°51' W 001°20'5 9.1
2017-Apr-22 07:01N 50°46' W 001°19'815.4
2017-Apr-22 06:30N 50°45' W 001°07'815.1
2017-Apr-22 06:00N 50°40' W 000°58'713.5
2017-Apr-22 05:30N 50°33' W 001°01'916.6
2017-Apr-22 04:59N 50°29' W 001°12'3819.0
2017-Apr-22 03:00N 50°18' W 002°08'918.4
2017-Apr-22 02:30N 50°15' W 002°22'918.0
2017-Apr-22 02:00N 50°12' W 002°35'917.6
2017-Apr-22 01:31N 50°10' W 002°49'917.2
2017-Apr-22 01:00N 50°07' W 003°01'816.9
2017-Apr-22 00:30N 50°04' W 003°13'816.6
2017-Apr-22 00:00N 49°60' W 003°25'816.6
2017-Apr-21 23:30N 49°55' W 003°35'816.7
2017-Apr-21 23:00N 49°49' W 003°44'1517.1
2017-Apr-21 22:09N 49°39' W 004°01'317.2
2017-Apr-21 22:00N 49°37' W 004°04'2917.2
2017-Apr-21 20:17N 49°17' W 004°37'517.0
2017-Apr-21 19:59N 49°13' W 004°42'916.9
2017-Apr-21 19:27N 49°07' W 004°52'716.7
2017-Apr-21 19:00N 49°02' W 005°01'816.5
2017-Apr-21 18:30N 48°58' W 005°12'816.4
2017-Apr-21 18:00N 48°54' W 005°22'816.2
2017-Apr-21 17:30N 48°49' W 005°33'815.7
2017-Apr-21 17:00N 48°43' W 005°41'816.2
2017-Apr-21 16:30N 48°36' W 005°46'816.2
2017-Apr-21 16:00N 48°29' W 005°52'816.3
2017-Apr-21 15:30N 48°22' W 005°57'53512.6
2017-Apr-19 20:55N 39°53' W 009°49'715.7
2017-Apr-19 20:27N 39°46' W 009°50'1015.8
2017-Apr-19 19:48N 39°36' W 009°50'515.8
2017-Apr-19 19:29N 39°31' W 009°50'716.0
2017-Apr-19 19:01N 39°23' W 009°50'816.1
2017-Apr-19 18:30N 39°15' W 009°50'815.7
2017-Apr-19 18:00N 39°08' W 009°48'815.8
2017-Apr-19 17:30N 38°60' W 009°45'816.2
2017-Apr-19 17:01N 38°52' W 009°43'816.3
2017-Apr-19 16:30N 38°44' W 009°43'713.3
2017-Apr-19 16:01N 38°38' W 009°38'815.4
2017-Apr-19 15:31N 38°37' W 009°28'714.5
2017-Apr-19 15:00N 38°39' W 009°19'612.3
2017-Apr-19 14:29N 38°41' W 009°12'4 3.5
2017-Apr-19 13:25N 38°43' W 009°07'0 0.0
2017-Apr-19 12:58N 38°43' W 009°07'0 0.0
2017-Apr-19 12:19N 38°43' W 009°07'0 0.0
2017-Apr-19 10:43N 38°43' W 009°07'0 0.0
2017-Apr-19 08:58N 38°43' W 009°07'0 0.0
2017-Apr-19 07:01N 38°43' W 009°07'0 0.0
2017-Apr-19 06:53N 38°43' W 009°07'0 0.9
2017-Apr-19 06:31N 38°43' W 009°07'3 5.1
2017-Apr-19 06:00N 38°42' W 009°10'4 9.1
2017-Apr-19 05:30N 38°41' W 009°16'5 9.4
2017-Apr-19 05:00N 38°39' W 009°21'612.1
2017-Apr-19 04:30N 38°33' W 009°23'611.6
2017-Apr-19 04:01N 38°27' W 009°24'510.6
2017-Apr-19 03:31N 38°22' W 009°24'510.7
2017-Apr-19 03:01N 38°17' W 009°25'611.1
2017-Apr-19 02:31N 38°11' W 009°25'611.1
2017-Apr-19 02:01N 38°05' W 009°24'611.2
2017-Apr-19 01:31N 37°60' W 009°24'611.0
2017-Apr-19 01:01N 37°54' W 009°24'611.3
2017-Apr-19 00:31N 37°49' W 009°24'611.2
2017-Apr-19 00:01N 37°43' W 009°24'711.1
2017-Apr-18 23:21N 37°36' W 009°23'411.0
2017-Apr-18 23:01N 37°32' W 009°23'611.4
2017-Apr-18 22:30N 37°26' W 009°23'611.5
2017-Apr-18 21:58N 37°20' W 009°23'511.5
2017-Apr-18 21:30N 37°15' W 009°23'1011.8
2017-Apr-18 20:38N 37°05' W 009°22'315.9
2017-Apr-18 20:28N 37°02' W 009°21'716.0
2017-Apr-18 20:00N 36°55' W 009°20'916.1
2017-Apr-18 19:28N 36°48' W 009°13'815.8
2017-Apr-18 19:00N 36°44' W 009°06'816.1
2017-Apr-18 18:31N 36°41' W 008°56'816.2
2017-Apr-18 18:00N 36°38' W 008°47'916.1
2017-Apr-18 17:27N 36°36' W 008°36'916.0
2017-Apr-18 16:52N 36°33' W 008°25'615.9
2017-Apr-18 16:29N 36°31' W 008°18'1223.3
2017-Apr-18 15:58N 36°27' W 008°04'5 8.8
2017-Apr-18 15:26N 36°25' W 007°58'916.2
2017-Apr-18 14:52N 36°23' W 007°48'8815.8
2017-Apr-18 09:18N 35°58' W 006°03'715.5
2017-Apr-18 08:49N 35°58' W 005°54'515.5
2017-Apr-18 08:29N 35°58' W 005°47'715.0
2017-Apr-18 08:01N 35°58' W 005°39'815.1
2017-Apr-18 07:31N 35°59' W 005°29'714.6
2017-Apr-18 07:01N 36°01' W 005°21'714.5
2017-Apr-18 06:31N 36°03' W 005°12'714.7
2017-Apr-18 06:01N 36°05' W 005°03'815.3
2017-Apr-18 05:30N 36°06' W 004°54'815.3
2017-Apr-18 04:59N 36°07' W 004°44'715.0
2017-Apr-18 04:31N 36°07' W 004°35'714.6
2017-Apr-18 04:01N 36°08' W 004°26'714.6
2017-Apr-18 03:30N 36°09' W 004°17'815.8
2017-Apr-18 03:00N 36°11' W 004°08'816.8
2017-Apr-18 02:30N 36°12' W 003°57'816.6
2017-Apr-18 02:00N 36°14' W 003°47'816.2
2017-Apr-18 01:29N 36°15' W 003°37'816.3
2017-Apr-18 01:01N 36°16' W 003°27'816.4
2017-Apr-18 00:31N 36°17' W 003°17'816.5
2017-Apr-18 00:00N 36°18' W 003°07'816.3
2017-Apr-17 23:30N 36°20' W 002°57'816.0
2017-Apr-17 23:00N 36°21' W 002°47'3415.3
2017-Apr-17 20:46N 36°30' W 002°07'416.3
2017-Apr-17 20:30N 36°34' W 002°04'77 5.1
2017-Apr-17 05:14N 37°29' W 000°57'313.8
2017-Apr-17 05:00N 37°28' W 000°53'714.9
2017-Apr-17 04:30N 37°27' W 000°44'816.6
2017-Apr-17 04:00N 37°33' W 000°36'816.5
2017-Apr-17 03:30N 37°38' W 000°28'816.7
2017-Apr-17 03:00N 37°42' W 000°19'2016.6
2017-Apr-17 01:47N 37°50' E 000°05'516.4
2017-Apr-17 01:30N 37°52' E 000°10'  
Track history (hours):
 
Tides and Currents Weather Stations Pressure Air Temp Water Temp Dewpoint Dewpoint Depression Visibility Wind Speed Wind Dir Waves Ship Positions

Norwegian Crown

Operator: Norwegian Cruise Line

Last reported at 2017-Apr-27 01:28 UTC. Time now 2017-Apr-27 01:32 UTC.
Position N 52°23' E 004°55'.

Type: Ship. MMSI: 308785000.

Date/timePositionNaut miles runAvg speedWind from/ knotsBaromVisibWave heightAir tempDewpointWater temp
2017-Apr-27 01:28N 52°23' E 004°55'0 0.0
2017-Apr-27 00:58N 52°23' E 004°55'0 0.0
2017-Apr-27 00:28N 52°23' E 004°55'0 0.0
2017-Apr-26 23:58N 52°23' E 004°55'0 0.0
2017-Apr-26 23:28N 52°23' E 004°55'0 0.0
2017-Apr-26 22:58N 52°23' E 004°55'0 0.0
2017-Apr-26 22:28N 52°23' E 004°55'0 0.0
2017-Apr-26 21:58N 52°23' E 004°55'0 0.0
2017-Apr-26 21:28N 52°23' E 004°55'0 0.0
2017-Apr-26 20:58N 52°23' E 004°55'0 0.0
2017-Apr-26 20:28N 52°23' E 004°55'0 0.0
2017-Apr-26 19:58N 52°23' E 004°55'0 0.0
2017-Apr-26 19:28N 52°23' E 004°55'0 0.0
2017-Apr-26 18:58N 52°23' E 004°55'0 0.0
2017-Apr-26 18:28N 52°23' E 004°55'0 0.0
2017-Apr-26 17:58N 52°23' E 004°55'0 0.0
2017-Apr-26 17:28N 52°23' E 004°55'0 0.0
2017-Apr-26 16:58N 52°23' E 004°55'0 0.0
2017-Apr-26 16:28N 52°23' E 004°55'0 0.0
2017-Apr-26 15:58N 52°23' E 004°55'0 0.0
2017-Apr-26 15:28N 52°23' E 004°55'0 0.0
2017-Apr-26 14:58N 52°23' E 004°55'0 0.0
2017-Apr-26 14:28N 52°23' E 004°55'0 0.0
2017-Apr-26 13:28N 52°23' E 004°55'0 0.0
2017-Apr-26 12:58N 52°23' E 004°55'0 0.0
2017-Apr-26 12:28N 52°23' E 004°55'0 0.0
2017-Apr-26 11:58N 52°23' E 004°55'0 0.0
2017-Apr-26 11:28N 52°23' E 004°55'1 1.5
2017-Apr-26 11:01N 52°23' E 004°54'3 5.8
2017-Apr-26 10:31N 52°25' E 004°51'4 8.5
2017-Apr-26 10:01N 52°26' E 004°44'4 8.5
2017-Apr-26 09:31N 52°28' E 004°38'1 1.9
2017-Apr-26 09:00N 52°28' E 004°36'3 6.1
2017-Apr-26 08:31N 52°28' E 004°31'510.2
2017-Apr-26 08:00N 52°29' E 004°23'4 7.5
2017-Apr-26 07:30N 52°30' E 004°17'713.6
2017-Apr-26 07:00N 52°32' E 004°07'816.4
2017-Apr-26 06:31N 52°40' E 004°03'916.3
2017-Apr-26 05:57N 52°49' E 003°58'715.4
2017-Apr-26 05:29N 52°56' E 003°60'714.7
2017-Apr-26 05:01N 53°01' E 004°08'914.5
2017-Apr-26 04:25N 53°07' E 004°18'6514.5
2017-Apr-25 23:56N 53°44' E 005°48'6814.8
2017-Apr-25 19:19N 54°01' E 007°40'413.7
2017-Apr-25 19:00N 54°02' E 007°48'713.6
2017-Apr-25 18:30N 54°01' E 007°59'613.0
2017-Apr-25 18:00N 54°01' E 008°10'510.3
2017-Apr-25 17:30N 53°60' E 008°19'815.5
2017-Apr-25 17:00N 53°58' E 008°31'815.8
2017-Apr-25 16:31N 53°54' E 008°42'714.5
2017-Apr-25 16:00N 53°50' E 008°53'816.7
2017-Apr-25 15:30N 53°53' E 009°07'612.3
2017-Apr-25 15:00N 53°52' E 009°17'714.9
2017-Apr-25 14:30N 53°46' E 009°24'1313.1
2017-Apr-25 13:30N 53°35' E 009°37'611.2
2017-Apr-25 13:00N 53°34' E 009°46'5 9.5
2017-Apr-25 12:30N 53°32' E 009°54'2 3.1
2017-Apr-25 12:00N 53°33' E 009°56'0 0.0
2017-Apr-25 11:28N 53°33' E 009°56'0 0.0
2017-Apr-25 10:58N 53°33' E 009°56'0 0.0
2017-Apr-25 10:28N 53°33' E 009°56'0 0.0
2017-Apr-25 10:01N 53°33' E 009°56'0 0.0
2017-Apr-25 09:28N 53°33' E 009°56'0 0.0
2017-Apr-25 09:01N 53°33' E 009°56'0 0.0
2017-Apr-25 08:31N 53°33' E 009°56'0 0.0
2017-Apr-25 07:58N 53°33' E 009°56'0 0.0
2017-Apr-25 07:28N 53°33' E 009°56'0 0.0
2017-Apr-25 06:58N 53°33' E 009°56'0 0.0
2017-Apr-25 06:28N 53°33' E 009°56'0 0.0
2017-Apr-25 06:01N 53°33' E 009°56'0 0.0
2017-Apr-25 05:28N 53°33' E 009°56'0 0.0
2017-Apr-25 05:01N 53°33' E 009°56'0 0.0
2017-Apr-25 04:31N 53°33' E 009°56'0 0.0
2017-Apr-25 04:01N 53°33' E 009°56'0 0.0
2017-Apr-25 03:28N 53°33' E 009°56'0 0.0
2017-Apr-25 02:58N 53°33' E 009°56'0 0.0
2017-Apr-25 02:31N 53°33' E 009°56'0 0.0
2017-Apr-25 02:01N 53°33' E 009°56'0 0.0
2017-Apr-25 01:31N 53°33' E 009°56'0 0.0
2017-Apr-25 00:58N 53°33' E 009°56'0 0.0
2017-Apr-25 00:28N 53°33' E 009°56'0 0.0
2017-Apr-24 23:58N 53°33' E 009°56'0 0.0
2017-Apr-24 23:28N 53°33' E 009°56'0 0.0
2017-Apr-24 22:58N 53°33' E 009°56'0 0.0
2017-Apr-24 22:28N 53°33' E 009°56'0 0.0
2017-Apr-24 21:58N 53°33' E 009°56'0 0.0
2017-Apr-24 21:31N 53°33' E 009°56'0 0.0
2017-Apr-24 20:58N 53°33' E 009°56'0 0.0
2017-Apr-24 20:28N 53°33' E 009°56'0 0.0
2017-Apr-24 19:58N 53°33' E 009°56'0 0.0
2017-Apr-24 19:31N 53°33' E 009°56'0 0.0
2017-Apr-24 18:58N 53°33' E 009°56'0 0.0
2017-Apr-24 18:25N 53°33' E 009°56'0 0.0
2017-Apr-24 17:58N 53°33' E 009°56'0 0.0
2017-Apr-24 17:28N 53°33' E 009°56'0 0.0
2017-Apr-24 17:01N 53°33' E 009°56'0 0.0
2017-Apr-24 16:28N 53°33' E 009°56'0 0.0
2017-Apr-24 15:58N 53°33' E 009°56'0 0.0
2017-Apr-24 15:31N 53°33' E 009°56'0 0.0
2017-Apr-24 14:58N 53°33' E 009°56'0 0.0
2017-Apr-24 14:31N 53°33' E 009°56'0 0.0
2017-Apr-24 13:28N 53°33' E 009°56'0 0.0
2017-Apr-24 12:58N 53°33' E 009°56'0 0.0
2017-Apr-24 12:28N 53°33' E 009°56'0 0.0
2017-Apr-24 11:58N 53°33' E 009°56'0 0.0
2017-Apr-24 11:28N 53°33' E 009°56'0 0.0
2017-Apr-24 11:01N 53°33' E 009°56'0 0.0
2017-Apr-24 10:28N 53°33' E 009°56'0 0.0
2017-Apr-24 09:58N 53°33' E 009°56'0 0.0
2017-Apr-24 09:31N 53°33' E 009°56'0 0.0
2017-Apr-24 08:58N 53°33' E 009°56'0 0.2
2017-Apr-24 08:30N 53°33' E 009°56'3 5.3
2017-Apr-24 08:00N 53°33' E 009°52'4 8.5
2017-Apr-24 07:30N 53°34' E 009°45'613.0
2017-Apr-24 07:01N 53°36' E 009°35'613.0
2017-Apr-24 06:30N 53°42' E 009°30'612.8
2017-Apr-24 06:00N 53°47' E 009°23'612.6
2017-Apr-24 05:31N 53°52' E 009°17'611.4
2017-Apr-24 05:00N 53°53' E 009°07'5 9.1
2017-Apr-24 04:30N 53°51' E 008°60'612.4
2017-Apr-24 04:00N 53°50' E 008°49'5 9.6
2017-Apr-24 03:30N 53°53' E 008°42'611.6
2017-Apr-24 03:01N 53°57' E 008°36'713.2
2017-Apr-24 02:30N 53°59' E 008°25'713.1
2017-Apr-24 01:59N 53°60' E 008°14'713.8
2017-Apr-24 01:27N 53°59' E 008°01'9816.5
2017-Apr-23 19:32N 53°33' E 005°22'116.9
2017-Apr-23 19:30N 53°33' E 005°21'1117.2
2017-Apr-23 18:51N 53°29' E 005°04'617.4
2017-Apr-23 18:30N 53°27' E 004°54'1616.2
2017-Apr-23 17:29N 53°15' E 004°35'817.1
2017-Apr-23 17:00N 53°08' E 004°28'917.4
2017-Apr-23 16:30N 53°00' E 004°21'917.5
2017-Apr-23 16:00N 52°52' E 004°14'917.4
2017-Apr-23 15:30N 52°45' E 004°06'1017.1
2017-Apr-23 14:56N 52°38' E 003°55'817.6
2017-Apr-23 14:30N 52°33' E 003°46'7518.2
2017-Apr-23 10:24N 51°38' E 002°24'718.5
2017-Apr-23 10:01N 51°32' E 002°16'918.3
2017-Apr-23 09:30N 51°25' E 002°07'918.5
2017-Apr-23 09:00N 51°18' E 001°57'918.4
2017-Apr-23 08:30N 51°12' E 001°47'918.3
2017-Apr-23 08:00N 51°05' E 001°37'918.2
2017-Apr-23 07:30N 50°58' E 001°28'917.5
2017-Apr-23 07:00N 50°50' E 001°24'2616.9
2017-Apr-23 05:27N 50°31' E 000°55'817.8
2017-Apr-23 05:00N 50°29' E 000°42'917.8
2017-Apr-23 04:29N 50°26' E 000°28'817.6
2017-Apr-23 04:00N 50°24' E 000°16'917.3
2017-Apr-23 03:30N 50°22' E 000°02'917.0
2017-Apr-23 03:00N 50°22' W 000°11'917.1
2017-Apr-23 02:30N 50°26' W 000°23'816.8
2017-Apr-23 02:00N 50°30' W 000°35'816.6
2017-Apr-23 01:30N 50°35' W 000°45'816.2
2017-Apr-23 01:01N 50°40' W 000°55'510.7
2017-Apr-23 00:31N 50°43' W 001°01'816.0
2017-Apr-23 00:00N 50°46' W 001°13'5 9.2
2017-Apr-22 23:30N 50°49' W 001°18'510.6
2017-Apr-22 23:00N 50°53' W 001°24'1 2.1
2017-Apr-22 22:28N 50°54' W 001°25'0 0.0
2017-Apr-22 21:58N 50°54' W 001°25'0 0.0
2017-Apr-22 21:28N 50°54' W 001°25'0 0.0
2017-Apr-22 20:58N 50°54' W 001°25'0 0.0
2017-Apr-22 20:28N 50°54' W 001°25'0 0.0
2017-Apr-22 19:58N 50°54' W 001°25'0 0.0
2017-Apr-22 19:28N 50°54' W 001°25'0 0.0
2017-Apr-22 18:58N 50°54' W 001°25'0 0.0
2017-Apr-22 18:28N 50°54' W 001°25'0 0.0
2017-Apr-22 17:58N 50°54' W 001°25'0 0.0
2017-Apr-22 17:28N 50°54' W 001°25'0 0.0
2017-Apr-22 16:52N 50°54' W 001°25'0 0.0
2017-Apr-22 16:28N 50°54' W 001°25'0 0.0
2017-Apr-22 15:55N 50°54' W 001°25'0 0.0
2017-Apr-22 15:04N 50°54' W 001°25'0 0.0
2017-Apr-22 14:58N 50°54' W 001°25'0 0.0
2017-Apr-22 14:28N 50°54' W 001°25'0 0.0
2017-Apr-22 13:28N 50°54' W 001°25'0 0.0
2017-Apr-22 12:52N 50°54' W 001°25'0 0.0
2017-Apr-22 12:28N 50°54' W 001°25'0 0.0
2017-Apr-22 11:58N 50°54' W 001°25'0 0.0
2017-Apr-22 11:22N 50°54' W 001°25'0 0.0
2017-Apr-22 10:58N 50°54' W 001°25'0 0.0
2017-Apr-22 10:28N 50°54' W 001°25'0 0.0
2017-Apr-22 09:55N 50°54' W 001°25'0 0.0
2017-Apr-22 09:22N 50°54' W 001°25'0 0.0
2017-Apr-22 08:58N 50°54' W 001°25'0 0.0
2017-Apr-22 08:28N 50°54' W 001°25'0 0.3
2017-Apr-22 08:00N 50°54' W 001°25'4 8.2
2017-Apr-22 07:31N 50°51' W 001°20'5 9.1
2017-Apr-22 07:01N 50°46' W 001°19'815.4
2017-Apr-22 06:30N 50°45' W 001°07'815.1
2017-Apr-22 06:00N 50°40' W 000°58'713.5
2017-Apr-22 05:30N 50°33' W 001°01'916.6
2017-Apr-22 04:59N 50°29' W 001°12'3819.0
2017-Apr-22 03:00N 50°18' W 002°08'918.4
2017-Apr-22 02:30N 50°15' W 002°22'918.0
2017-Apr-22 02:00N 50°12' W 002°35'917.6
2017-Apr-22 01:31N 50°10' W 002°49'917.2
2017-Apr-22 01:00N 50°07' W 003°01'816.9
2017-Apr-22 00:30N 50°04' W 003°13'816.6
2017-Apr-22 00:00N 49°60' W 003°25'816.6
2017-Apr-21 23:30N 49°55' W 003°35'816.7
2017-Apr-21 23:00N 49°49' W 003°44'1517.1
2017-Apr-21 22:09N 49°39' W 004°01'317.2
2017-Apr-21 22:00N 49°37' W 004°04'2917.2
2017-Apr-21 20:17N 49°17' W 004°37'517.0
2017-Apr-21 19:59N 49°13' W 004°42'916.9
2017-Apr-21 19:27N 49°07' W 004°52'716.7
2017-Apr-21 19:00N 49°02' W 005°01'816.5
2017-Apr-21 18:30N 48°58' W 005°12'816.4
2017-Apr-21 18:00N 48°54' W 005°22'816.2
2017-Apr-21 17:30N 48°49' W 005°33'815.7
2017-Apr-21 17:00N 48°43' W 005°41'816.2
2017-Apr-21 16:30N 48°36' W 005°46'816.2
2017-Apr-21 16:00N 48°29' W 005°52'816.3
2017-Apr-21 15:30N 48°22' W 005°57'53512.6
2017-Apr-19 20:55N 39°53' W 009°49'715.7
2017-Apr-19 20:27N 39°46' W 009°50'1015.8
2017-Apr-19 19:48N 39°36' W 009°50'515.8
2017-Apr-19 19:29N 39°31' W 009°50'716.0
2017-Apr-19 19:01N 39°23' W 009°50'816.1
2017-Apr-19 18:30N 39°15' W 009°50'815.7
2017-Apr-19 18:00N 39°08' W 009°48'815.8
2017-Apr-19 17:30N 38°60' W 009°45'816.2
2017-Apr-19 17:01N 38°52' W 009°43'816.3
2017-Apr-19 16:30N 38°44' W 009°43'713.3
2017-Apr-19 16:01N 38°38' W 009°38'815.4
2017-Apr-19 15:31N 38°37' W 009°28'714.5
2017-Apr-19 15:00N 38°39' W 009°19'612.3
2017-Apr-19 14:29N 38°41' W 009°12'4 3.5
2017-Apr-19 13:25N 38°43' W 009°07'0 0.0
2017-Apr-19 12:58N 38°43' W 009°07'0 0.0
2017-Apr-19 12:19N 38°43' W 009°07'0 0.0
2017-Apr-19 10:43N 38°43' W 009°07'0 0.0
2017-Apr-19 08:58N 38°43' W 009°07'0 0.0
2017-Apr-19 07:01N 38°43' W 009°07'0 0.0
2017-Apr-19 06:53N 38°43' W 009°07'0 0.9
2017-Apr-19 06:31N 38°43' W 009°07'3 5.1
2017-Apr-19 06:00N 38°42' W 009°10'4 9.1
2017-Apr-19 05:30N 38°41' W 009°16'5 9.4
2017-Apr-19 05:00N 38°39' W 009°21'612.1
2017-Apr-19 04:30N 38°33' W 009°23'611.6
2017-Apr-19 04:01N 38°27' W 009°24'510.6
2017-Apr-19 03:31N 38°22' W 009°24'510.7
2017-Apr-19 03:01N 38°17' W 009°25'611.1
2017-Apr-19 02:31N 38°11' W 009°25'611.1
2017-Apr-19 02:01N 38°05' W 009°24'611.2
2017-Apr-19 01:31N 37°60' W 009°24'611.0
2017-Apr-19 01:01N 37°54' W 009°24'611.3
2017-Apr-19 00:31N 37°49' W 009°24'611.2
2017-Apr-19 00:01N 37°43' W 009°24'711.1
2017-Apr-18 23:21N 37°36' W 009°23'411.0
2017-Apr-18 23:01N 37°32' W 009°23'611.4
2017-Apr-18 22:30N 37°26' W 009°23'611.5
2017-Apr-18 21:58N 37°20' W 009°23'511.5
2017-Apr-18 21:30N 37°15' W 009°23'1011.8
2017-Apr-18 20:38N 37°05' W 009°22'315.9
2017-Apr-18 20:28N 37°02' W 009°21'716.0
2017-Apr-18 20:00N 36°55' W 009°20'916.1
2017-Apr-18 19:28N 36°48' W 009°13'815.8
2017-Apr-18 19:00N 36°44' W 009°06'816.1
2017-Apr-18 18:31N 36°41' W 008°56'816.2
2017-Apr-18 18:00N 36°38' W 008°47'916.1
2017-Apr-18 17:27N 36°36' W 008°36'916.0
2017-Apr-18 16:52N 36°33' W 008°25'615.9
2017-Apr-18 16:29N 36°31' W 008°18'1223.3
2017-Apr-18 15:58N 36°27' W 008°04'5 8.8
2017-Apr-18 15:26N 36°25' W 007°58'916.2
2017-Apr-18 14:52N 36°23' W 007°48'8815.8
2017-Apr-18 09:18N 35°58' W 006°03'715.5
2017-Apr-18 08:49N 35°58' W 005°54'515.5
2017-Apr-18 08:29N 35°58' W 005°47'715.0
2017-Apr-18 08:01N 35°58' W 005°39'815.1
2017-Apr-18 07:31N 35°59' W 005°29'714.6
2017-Apr-18 07:01N 36°01' W 005°21'714.5
2017-Apr-18 06:31N 36°03' W 005°12'714.7
2017-Apr-18 06:01N 36°05' W 005°03'815.3
2017-Apr-18 05:30N 36°06' W 004°54'815.3
2017-Apr-18 04:59N 36°07' W 004°44'715.0
2017-Apr-18 04:31N 36°07' W 004°35'714.6
2017-Apr-18 04:01N 36°08' W 004°26'714.6
2017-Apr-18 03:30N 36°09' W 004°17'815.8
2017-Apr-18 03:00N 36°11' W 004°08'816.8
2017-Apr-18 02:30N 36°12' W 003°57'816.6
2017-Apr-18 02:00N 36°14' W 003°47'816.2
2017-Apr-18 01:29N 36°15' W 003°37'816.3
2017-Apr-18 01:01N 36°16' W 003°27'816.4
2017-Apr-18 00:31N 36°17' W 003°17'816.5
2017-Apr-18 00:00N 36°18' W 003°07'816.3
2017-Apr-17 23:30N 36°20' W 002°57'816.0
2017-Apr-17 23:00N 36°21' W 002°47'3415.3
2017-Apr-17 20:46N 36°30' W 002°07'416.3
2017-Apr-17 20:30N 36°34' W 002°04'77 5.1
2017-Apr-17 05:14N 37°29' W 000°57'313.8
2017-Apr-17 05:00N 37°28' W 000°53'714.9
2017-Apr-17 04:30N 37°27' W 000°44'816.6
2017-Apr-17 04:00N 37°33' W 000°36'816.5
2017-Apr-17 03:30N 37°38' W 000°28'816.7
2017-Apr-17 03:00N 37°42' W 000°19'2016.6
2017-Apr-17 01:47N 37°50' E 000°05'516.4
2017-Apr-17 01:30N 37°52' E 000°10'  

Dump ship's entire track history